Wilmington, OH

7:56 PM EST on February 24, 2017 (GMT -0500)
2.2 N Wilmington | | Change Station
Active Advisory: Severe Thunderstorm Watch

Elev 1053 ft 39.47 °N, 83.84 °W | Updated 7 minutes ago

Mostly Cloudy
Mostly Cloudy
69.0 °F
Feels Like 69.0 °F
N
5.0
Wind Variable Wind from SSW
Gusts 10.0 mph

Today
High -- | Low -- °F
--% Chance of Precip.
Yesterday
High -- | Low -- °F
Precip. -- in
Pressure 29.54 in
Visibility 10.0 miles
Clouds Mostly Cloudy 6500 ft
Mostly Cloudy 8500 ft
Dew Point 54 °F
Humidity 60%
Rainfall 0.00 in
Snow Depth Not available.
7:14 AM 6:22 PM
Waning Crescent, 3% visible
METAR KILN 250054Z AUTO 17011KT 10SM BKN065 BKN085 20/12 A2954 RMK AO2 LTG DSNT W-N SLP002 T02000117
Pressure 29.54 in
Visibility 10.0 miles
Clouds Mostly Cloudy 6500 ft
Mostly Cloudy 8500 ft
Dew Point 54 °F
Humidity 60%
Rainfall 0.00 in
Snow Depth Not available.
7:14 AM 6:22 PM
Waning Crescent, 3% visible
METAR KILN 250054Z AUTO 17011KT 10SM BKN065 BKN085 20/12 A2954 RMK AO2 LTG DSNT W-N SLP002 T02000117

Get Your Daily Forecast Email!

Thanks for signing up!

Be on the lookout for a verification email in your inbox.

You'll start receiving the daily forecast at 8 AM.

×

10-Day Weather Forecast

Almanac

Astronomy

Feb. 24, 2017 Rise Set
Actual Time
Civil Twilight
Nautical Twilight
Astronomical Twilight
Moon
Length of Visible Light
Length of Day
Tomorrow will be .
, % of the Moon is Illuminated

Today's Extremes

State Highs State Lows

Community

WunderPhotos

Upload Photos

1,962,540 photos uploaded!

WunderBlog® & News

Nearby

Air Quality

  Air Quality AQ Index Pollutant
Not available.

Snow Depth

Station Depth Elevation

Earthquake Activity

City Distance Mag. Time & Date
Minimum magnitude displayed is 2.5.

Coastal Water Temperatures

Place Temperature

Stations

Nearby Weather Stations

Station Location Temp. Windchill Dew Point Humidity Wind Precip. Elev Updated Type
                   

Watches & Warnings

Severe Thunderstorm Watch
Issued: 7:43 PM EST Feb. 24, 2017 – National Weather Service

Severe Thunderstorm Watch 38 remains in effect until 200 am EST

OH
. Ohio counties included are

Adams Ashland Auglaize
Brown Butler Champaign
Clark Clermont Clinton
Crawford Cuyahoga Darke
Delaware Erie Fairfield
Fayette Franklin Greene
Hamilton Hancock Hardin
Highland Hocking Holmes
Huron Knox Licking
Logan Lorain Lucas
Madison Marion Medina
Mercer Miami Montgomery
Morrow Ottawa Pickaway
Pike Preble Richland
Ross Sandusky Scioto
Seneca Shelby Union
Warren Wayne wood
Wyandot